createdAt,value
2017-07-14T00:01:27.683Z,14.20
2017-07-14T00:03:55.999Z,14.30
2017-07-14T00:06:24.290Z,14.30
2017-07-14T00:08:53.348Z,14.30
2017-07-14T00:11:21.676Z,14.20
2017-07-14T00:13:49.946Z,14.20
2017-07-14T00:16:18.227Z,14.20
2017-07-14T00:18:46.638Z,14.20
2017-07-14T00:21:14.917Z,14.10
2017-07-14T00:23:43.328Z,14.20
2017-07-14T00:26:11.615Z,14.20
2017-07-14T00:28:39.944Z,14.10
2017-07-14T00:31:08.223Z,14.20
2017-07-14T00:33:37.259Z,14.20
2017-07-14T00:36:05.687Z,14.20
2017-07-14T00:38:33.963Z,14.10
2017-07-14T00:41:02.258Z,14.10
2017-07-14T00:43:30.561Z,14.10
2017-07-14T00:45:58.852Z,14.20
2017-07-14T00:48:27.179Z,14.30
2017-07-14T00:50:55.459Z,14.30
2017-07-14T00:53:23.812Z,14.30
2017-07-14T00:55:52.120Z,14.30
2017-07-14T00:58:21.211Z,14.20
2017-07-14T01:00:49.604Z,14.10
2017-07-14T01:03:17.894Z,14.20
2017-07-14T01:05:46.289Z,14.10
2017-07-14T01:08:14.575Z,14.10
2017-07-14T01:10:42.882Z,14.20
2017-07-14T01:13:11.967Z,14.10
2017-07-14T01:15:40.285Z,14.10
2017-07-14T01:18:09.331Z,14.00
2017-07-14T01:20:37.607Z,14.00
2017-07-14T01:23:05.909Z,14.10
2017-07-14T01:25:34.227Z,14.00
2017-07-14T01:28:02.509Z,14.10
2017-07-14T01:30:30.827Z,14.00
2017-07-14T01:32:59.924Z,13.80
2017-07-14T01:35:28.301Z,13.80
2017-07-14T01:37:56.695Z,13.80
2017-07-14T01:40:24.973Z,13.90
2017-07-14T01:42:53.285Z,13.90
2017-07-14T01:45:21.588Z,14.00
2017-07-14T01:47:50.762Z,13.90
2017-07-14T01:50:19.069Z,13.80
2017-07-14T01:52:47.347Z,13.80
2017-07-14T01:55:15.665Z,13.90
2017-07-14T01:57:43.970Z,13.90
2017-07-14T02:00:12.278Z,13.80
2017-07-14T02:02:40.597Z,13.80
2017-07-14T02:05:08.990Z,13.70
2017-07-14T02:07:37.279Z,13.60
2017-07-14T02:10:05.582Z,13.70
2017-07-14T02:12:33.853Z,13.60
2017-07-14T02:15:02.254Z,13.60
2017-07-14T02:17:30.525Z,13.70
2017-07-14T02:19:58.826Z,13.50
2017-07-14T02:22:27.130Z,13.40
2017-07-14T02:24:55.918Z,13.60
2017-07-14T02:27:24.247Z,13.60
2017-07-14T02:29:53.320Z,13.40
2017-07-14T02:32:21.599Z,13.40
2017-07-14T02:34:49.931Z,13.40
2017-07-14T02:37:18.978Z,13.40
2017-07-14T02:39:47.287Z,13.40
2017-07-14T02:42:15.585Z,13.40
2017-07-14T02:44:43.891Z,13.40
2017-07-14T02:47:12.204Z,13.30
2017-07-14T02:49:41.235Z,13.40
2017-07-14T02:52:09.571Z,13.40
2017-07-14T02:54:37.847Z,13.30
2017-07-14T02:57:06.234Z,13.30
2017-07-14T02:59:34.516Z,13.30
2017-07-14T03:02:02.835Z,13.30
2017-07-14T03:04:31.116Z,13.20
2017-07-14T03:06:59.490Z,13.20
2017-07-14T03:09:27.765Z,13.10
2017-07-14T03:11:56.067Z,13.10
2017-07-14T03:14:25.378Z,13.10
2017-07-14T03:16:53.670Z,13.10
2017-07-14T03:19:21.943Z,13.10
2017-07-14T03:21:50.356Z,13.10
2017-07-14T03:24:18.638Z,13.10
2017-07-14T03:26:46.944Z,12.90
2017-07-14T03:29:15.228Z,13.00
2017-07-14T03:31:43.535Z,13.10
2017-07-14T03:34:12.818Z,13.10
2017-07-14T03:36:41.108Z,13.10
2017-07-14T03:39:09.394Z,13.10
2017-07-14T03:41:37.711Z,13.00
2017-07-14T03:44:06.809Z,13.10
2017-07-14T03:46:35.096Z,13.00
2017-07-14T03:49:03.483Z,13.10
2017-07-14T03:51:31.761Z,13.20
2017-07-14T03:54:00.072Z,13.20
2017-07-14T03:56:28.557Z,13.20
2017-07-14T03:58:56.859Z,13.30
2017-07-14T04:01:25.943Z,13.30
2017-07-14T04:03:54.345Z,13.20
2017-07-14T04:06:22.721Z,13.40
2017-07-14T04:08:51.123Z,13.40
2017-07-14T04:11:19.519Z,13.30
2017-07-14T04:13:47.791Z,13.20
2017-07-14T04:16:16.080Z,13.30
2017-07-14T04:18:44.392Z,13.40
2017-07-14T04:21:12.695Z,13.40
2017-07-14T04:23:41.733Z,13.40
2017-07-14T04:26:10.038Z,13.40
2017-07-14T04:28:38.450Z,13.50
2017-07-14T04:31:06.752Z,13.50
2017-07-14T04:33:35.059Z,13.60
2017-07-14T04:36:04.156Z,13.60
2017-07-14T04:38:32.473Z,13.60
2017-07-14T04:41:01.547Z,13.70
2017-07-14T04:43:29.824Z,13.60
2017-07-14T04:45:58.122Z,13.70
2017-07-14T04:48:26.516Z,13.60
2017-07-14T04:50:54.810Z,13.60
2017-07-14T04:53:23.979Z,13.80
2017-07-14T04:55:52.299Z,13.70
2017-07-14T04:58:20.607Z,13.70
2017-07-14T05:00:49.674Z,13.80
2017-07-14T05:03:17.987Z,13.80
2017-07-14T05:05:46.372Z,13.80
2017-07-14T05:08:14.683Z,13.80
2017-07-14T05:10:43.767Z,14.20
2017-07-14T05:13:12.056Z,14.10
2017-07-14T05:15:40.457Z,14.40
2017-07-14T05:18:08.753Z,14.80
2017-07-14T05:20:37.030Z,15.10
2017-07-14T05:23:05.427Z,15.30
2017-07-14T05:25:33.731Z,15.60
2017-07-14T05:28:02.819Z,16.10
2017-07-14T05:30:31.208Z,16.10
2017-07-14T05:32:59.495Z,16.30
2017-07-14T05:35:27.766Z,16.60
2017-07-14T05:37:56.169Z,16.70
2017-07-14T05:40:24.457Z,16.90
2017-07-14T05:42:52.760Z,17.00
2017-07-14T05:45:21.077Z,16.90
2017-07-14T05:47:50.177Z,17.00
2017-07-14T05:50:19.259Z,17.00
2017-07-14T05:52:47.540Z,17.00
2017-07-14T05:55:15.846Z,17.00
2017-07-14T05:57:44.124Z,17.00
2017-07-14T06:00:12.410Z,17.20
2017-07-14T06:02:40.711Z,17.30
2017-07-14T06:05:09.057Z,17.40
2017-07-14T06:07:37.484Z,17.60
2017-07-14T06:10:05.890Z,17.60
2017-07-14T06:12:34.208Z,17.80
2017-07-14T06:15:03.267Z,17.90
2017-07-14T06:17:32.380Z,18.00
2017-07-14T06:20:00.686Z,18.00
2017-07-14T06:22:28.962Z,18.00
2017-07-14T06:24:57.275Z,17.90
2017-07-14T06:27:26.468Z,17.80
2017-07-14T06:29:54.775Z,17.80
2017-07-14T06:32:23.818Z,18.00
2017-07-14T06:34:52.100Z,18.00
2017-07-14T06:37:20.417Z,18.10
2017-07-14T06:39:48.726Z,18.20
2017-07-14T06:42:17.126Z,18.20
2017-07-14T06:44:45.395Z,18.30
2017-07-14T06:47:13.725Z,18.50
2017-07-14T06:49:42.771Z,19.00
2017-07-14T06:52:11.041Z,19.00
2017-07-14T06:54:39.388Z,19.20
2017-07-14T06:57:07.705Z,19.30
2017-07-14T06:59:36.875Z,19.70
2017-07-14T07:02:05.196Z,19.60
2017-07-14T07:04:34.241Z,19.60
2017-07-14T07:07:02.557Z,19.60
2017-07-14T07:09:30.870Z,19.50
2017-07-14T07:11:59.929Z,19.40
2017-07-14T07:14:28.224Z,19.40
2017-07-14T07:16:56.532Z,19.40
2017-07-14T07:19:24.848Z,19.50
2017-07-14T07:21:53.163Z,19.30
2017-07-14T07:24:21.515Z,19.50
2017-07-14T07:26:49.839Z,19.70
2017-07-14T07:29:18.908Z,19.90
2017-07-14T07:31:47.295Z,19.90
2017-07-14T07:34:15.589Z,19.80
2017-07-14T07:36:43.872Z,19.90
2017-07-14T07:39:12.258Z,19.90
2017-07-14T07:41:40.552Z,19.80
2017-07-14T07:44:08.842Z,19.70
2017-07-14T07:46:42.817Z,19.90
2017-07-14T07:49:16.922Z,20.10
2017-07-14T07:51:46.013Z,20.20
2017-07-14T07:54:14.299Z,20.20
2017-07-14T07:56:42.687Z,20.10
2017-07-14T07:59:10.974Z,20.20
2017-07-14T08:01:39.238Z,20.30
2017-07-14T08:04:07.647Z,20.30
2017-07-14T08:06:36.040Z,19.80
2017-07-14T08:09:04.343Z,19.50
2017-07-14T08:11:32.727Z,19.70
2017-07-14T08:14:01.030Z,20.10
2017-07-14T08:16:30.128Z,20.50
2017-07-14T08:18:58.435Z,20.50
2017-07-14T08:21:27.470Z,20.40
2017-07-14T08:23:55.812Z,20.40
2017-07-14T08:26:24.078Z,20.20
2017-07-14T08:28:52.496Z,20.00
2017-07-14T08:31:20.802Z,19.40
2017-07-14T08:33:49.892Z,19.60
2017-07-14T08:36:18.194Z,19.60
2017-07-14T08:38:47.288Z,19.70
2017-07-14T08:41:15.663Z,19.70
2017-07-14T08:43:43.952Z,19.90
2017-07-14T08:46:12.264Z,20.30
2017-07-14T08:48:40.748Z,20.50
2017-07-14T08:51:09.022Z,20.60
2017-07-14T08:53:37.313Z,20.50
2017-07-14T08:56:05.711Z,20.40
2017-07-14T08:58:33.991Z,20.00
2017-07-14T09:01:02.293Z,20.00
2017-07-14T09:03:30.679Z,19.80
2017-07-14T09:05:58.982Z,20.00
2017-07-14T09:08:27.269Z,20.00
2017-07-14T09:10:55.650Z,19.90
2017-07-14T09:13:23.943Z,19.80
2017-07-14T09:15:52.220Z,19.90
2017-07-14T09:18:20.624Z,20.20
2017-07-14T09:20:48.912Z,20.40
2017-07-14T09:23:17.222Z,20.40
2017-07-14T09:25:46.271Z,20.60
2017-07-14T09:28:14.593Z,20.60
2017-07-14T09:30:42.862Z,20.60
2017-07-14T09:33:11.268Z,20.50
2017-07-14T09:35:39.589Z,20.70
2017-07-14T09:38:08.676Z,20.60
2017-07-14T09:40:36.942Z,20.60
2017-07-14T09:43:05.343Z,20.80
2017-07-14T09:45:33.751Z,20.80
2017-07-14T09:48:02.144Z,20.80
2017-07-14T09:50:30.523Z,20.60
2017-07-14T09:52:58.927Z,20.60
2017-07-14T09:55:27.212Z,20.60
2017-07-14T09:57:55.493Z,20.60
2017-07-14T10:00:23.794Z,20.50
2017-07-14T10:02:52.164Z,20.40
2017-07-14T10:05:20.467Z,20.50
2017-07-14T10:07:48.751Z,20.50
2017-07-14T10:10:17.071Z,20.30
2017-07-14T10:12:46.161Z,20.40
2017-07-14T10:15:14.548Z,20.30
2017-07-14T10:17:42.881Z,20.70
2017-07-14T10:20:11.159Z,20.80
2017-07-14T10:22:39.443Z,20.90
2017-07-14T10:25:08.539Z,20.70
2017-07-14T10:27:36.917Z,20.70
2017-07-14T10:30:05.299Z,20.50
2017-07-14T10:32:33.589Z,20.60
2017-07-14T10:35:01.890Z,20.70
2017-07-14T10:37:30.268Z,20.50
2017-07-14T10:39:58.549Z,20.30
2017-07-14T10:42:26.855Z,20.40
2017-07-14T10:44:55.931Z,20.50
2017-07-14T10:47:24.239Z,20.40
2017-07-14T10:49:52.510Z,20.50
2017-07-14T10:52:20.818Z,20.60
2017-07-14T10:54:49.207Z,20.70
2017-07-14T10:57:17.499Z,20.70
2017-07-14T10:59:45.813Z,20.80
2017-07-14T11:02:14.895Z,21.30
2017-07-14T11:04:43.191Z,21.30
2017-07-14T11:07:11.520Z,21.60
2017-07-14T11:09:39.873Z,21.80
2017-07-14T11:12:08.155Z,21.90
2017-07-14T11:14:36.479Z,21.80
2017-07-14T11:17:05.518Z,21.60
2017-07-14T11:19:33.834Z,21.60
2017-07-14T11:22:02.155Z,21.70
2017-07-14T11:24:31.249Z,21.40
2017-07-14T11:26:59.528Z,21.40
2017-07-14T11:29:27.827Z,21.10
2017-07-14T11:31:56.204Z,20.90
2017-07-14T11:34:24.478Z,20.90
2017-07-14T11:36:52.790Z,20.70
2017-07-14T11:39:21.167Z,20.60
2017-07-14T11:41:49.438Z,20.50
2017-07-14T11:44:17.962Z,20.50
2017-07-14T11:46:46.230Z,20.50
2017-07-14T11:49:14.511Z,20.60
2017-07-14T11:51:42.823Z,20.50
2017-07-14T11:54:11.099Z,20.50
2017-07-14T11:56:39.498Z,20.40
2017-07-14T11:59:07.904Z,20.50
2017-07-14T12:01:36.286Z,20.20
2017-07-14T12:04:04.563Z,20.10
2017-07-14T12:06:32.976Z,20.10
2017-07-14T12:09:01.247Z,20.20
2017-07-14T12:11:29.647Z,20.20
2017-07-14T12:13:57.964Z,20.00
2017-07-14T12:16:27.003Z,19.90
2017-07-14T12:18:55.316Z,19.90
2017-07-14T12:21:23.591Z,19.80
2017-07-14T12:23:51.914Z,19.90
2017-07-14T12:26:20.187Z,20.20
2017-07-14T12:28:48.494Z,20.50
2017-07-14T12:31:16.828Z,20.70
2017-07-14T12:33:45.179Z,21.30
2017-07-14T12:36:13.569Z,21.50
2017-07-14T12:38:41.871Z,21.50
2017-07-14T12:41:10.959Z,21.20
2017-07-14T12:43:39.258Z,21.20
2017-07-14T12:46:07.640Z,21.50
2017-07-14T12:48:35.966Z,21.70
2017-07-14T12:51:05.016Z,21.30
2017-07-14T12:53:33.328Z,21.30
2017-07-14T12:56:01.713Z,21.30
2017-07-14T12:58:30.005Z,21.40
2017-07-14T13:00:58.329Z,21.60
2017-07-14T13:03:27.403Z,21.80
2017-07-14T13:05:55.718Z,21.70
2017-07-14T13:08:24.805Z,22.30
2017-07-14T13:10:53.121Z,22.30
2017-07-14T13:13:22.194Z,22.20
2017-07-14T13:15:50.489Z,22.20
2017-07-14T13:18:18.892Z,22.20
2017-07-14T13:20:47.162Z,22.10
2017-07-14T13:23:15.447Z,22.30
2017-07-14T13:25:43.775Z,22.50
2017-07-14T13:28:12.854Z,23.20
2017-07-14T13:30:41.135Z,23.20
2017-07-14T13:33:09.544Z,23.50
2017-07-14T13:35:37.926Z,23.80
2017-07-14T13:38:06.372Z,23.40
2017-07-14T13:40:34.720Z,23.30
2017-07-14T13:43:03.094Z,23.20
2017-07-14T13:45:31.390Z,23.20
2017-07-14T13:47:59.694Z,23.10
2017-07-14T13:50:28.001Z,23.20
2017-07-14T13:52:57.287Z,23.20
2017-07-14T13:55:25.555Z,23.20
2017-07-14T13:57:53.876Z,23.20
2017-07-14T14:00:22.263Z,22.90
2017-07-14T14:02:50.544Z,23.00
2017-07-14T14:05:18.847Z,22.50
2017-07-14T14:07:47.163Z,22.40
2017-07-14T14:10:15.476Z,22.20
2017-07-14T14:12:43.806Z,22.40
2017-07-14T14:15:12.196Z,22.70
2017-07-14T14:17:40.479Z,22.70
2017-07-14T14:20:08.792Z,22.10
2017-07-14T14:22:37.887Z,21.90
2017-07-14T14:25:06.168Z,21.80
2017-07-14T14:27:34.546Z,21.80
2017-07-14T14:30:02.817Z,21.90
2017-07-14T14:32:31.140Z,21.90
2017-07-14T14:34:59.463Z,22.00
2017-07-14T14:37:27.744Z,22.10
2017-07-14T14:39:56.796Z,23.00
2017-07-14T14:42:25.216Z,23.00
2017-07-14T14:44:53.487Z,23.60
2017-07-14T14:47:21.838Z,23.90
2017-07-14T14:49:50.190Z,23.90
2017-07-14T14:52:18.507Z,24.00
2017-07-14T14:54:46.850Z,24.00
2017-07-14T14:57:15.155Z,23.80
2017-07-14T14:59:43.460Z,23.80
2017-07-14T15:02:12.543Z,24.00
2017-07-14T15:04:40.947Z,24.00
2017-07-14T15:07:09.251Z,24.00
2017-07-14T15:09:38.343Z,24.00
2017-07-14T15:12:06.735Z,24.00
2017-07-14T15:14:35.111Z,24.20
2017-07-14T15:17:03.391Z,24.20
2017-07-14T15:19:31.804Z,24.40
2017-07-14T15:22:00.079Z,24.90
2017-07-14T15:24:28.362Z,25.50
2017-07-14T15:26:56.675Z,26.10
2017-07-14T15:29:24.956Z,26.30
2017-07-14T15:31:53.334Z,26.80
2017-07-14T15:34:21.611Z,26.80
2017-07-14T15:36:49.924Z,25.50
2017-07-14T15:39:18.217Z,24.80
2017-07-14T15:41:46.540Z,24.80
2017-07-14T15:44:15.717Z,27.30
2017-07-14T15:46:44.099Z,27.30
2017-07-14T15:49:12.419Z,28.30
2017-07-14T15:51:41.470Z,28.90
2017-07-14T15:54:09.752Z,28.80
2017-07-14T15:56:38.069Z,29.50
2017-07-14T15:59:06.467Z,29.60
2017-07-14T16:01:35.051Z,30.00
2017-07-14T16:04:03.359Z,30.30
2017-07-14T16:06:31.752Z,30.10
2017-07-14T16:09:00.038Z,29.90
2017-07-14T16:11:28.356Z,29.10
2017-07-14T16:13:57.427Z,30.30
2017-07-14T16:16:25.698Z,30.30
2017-07-14T16:18:54.028Z,30.80
2017-07-14T16:21:22.306Z,31.70
2017-07-14T16:23:50.698Z,32.00
2017-07-14T16:26:19.080Z,32.40
2017-07-14T16:28:47.358Z,33.10
2017-07-14T16:31:15.763Z,33.70
2017-07-14T16:33:44.044Z,33.40
2017-07-14T16:36:12.337Z,32.40
2017-07-14T16:38:40.740Z,33.10
2017-07-14T16:41:09.143Z,33.60
2017-07-14T16:43:38.226Z,34.60
2017-07-14T16:46:06.528Z,34.50
2017-07-14T16:48:34.802Z,34.30
2017-07-14T16:51:03.116Z,34.10
2017-07-14T16:53:31.422Z,33.50
2017-07-14T16:55:59.766Z,32.50
2017-07-14T16:58:28.053Z,30.50
2017-07-14T17:00:56.354Z,29.20
2017-07-14T17:03:24.643Z,27.70
2017-07-14T17:05:53.036Z,26.40
2017-07-14T17:08:21.414Z,25.20
2017-07-14T17:10:49.721Z,24.30
2017-07-14T17:13:18.041Z,23.70
2017-07-14T17:15:47.074Z,23.00
2017-07-14T17:18:15.396Z,23.00
2017-07-14T17:20:43.677Z,22.80
2017-07-14T17:23:12.003Z,22.60
2017-07-14T17:25:41.051Z,22.40
2017-07-14T17:28:09.339Z,22.40
2017-07-14T17:30:37.740Z,22.20
2017-07-14T17:33:06.035Z,22.20
2017-07-14T17:35:34.369Z,22.00
2017-07-14T17:38:03.397Z,21.80
2017-07-14T17:40:31.744Z,21.80
2017-07-14T17:43:00.063Z,21.60
2017-07-14T17:45:29.144Z,21.20
2017-07-14T17:47:57.443Z,21.20
2017-07-14T17:50:26.491Z,21.30
2017-07-14T17:52:54.807Z,21.20
2017-07-14T17:55:23.117Z,21.30
2017-07-14T17:57:51.489Z,21.40
2017-07-14T18:00:19.848Z,21.40
2017-07-14T18:02:48.155Z,21.60
2017-07-14T18:05:16.466Z,22.10
2017-07-14T18:07:44.749Z,22.70
2017-07-14T18:10:13.146Z,23.30
2017-07-14T18:12:41.458Z,23.70
2017-07-14T18:15:09.826Z,23.70
2017-07-14T18:17:38.140Z,23.40
2017-07-14T18:20:06.515Z,22.90
2017-07-14T18:22:34.922Z,22.40
2017-07-14T18:25:03.202Z,21.90
2017-07-14T18:27:31.573Z,21.40
2017-07-14T18:29:59.913Z,21.20
2017-07-14T18:32:28.188Z,20.90
2017-07-14T18:34:57.266Z,20.50
2017-07-14T18:37:25.574Z,20.40
2017-07-14T18:39:54.655Z,20.00
2017-07-14T18:42:22.942Z,20.00
2017-07-14T18:44:51.268Z,19.80
2017-07-14T18:47:20.359Z,19.30
2017-07-14T18:49:48.648Z,19.30
2017-07-14T18:52:17.034Z,19.10
2017-07-14T18:54:45.308Z,19.10
2017-07-14T18:57:13.701Z,18.90
2017-07-14T18:59:42.021Z,18.70
2017-07-14T19:02:10.295Z,18.60
2017-07-14T19:04:38.623Z,18.50
2017-07-14T19:07:06.890Z,18.30
2017-07-14T19:09:35.944Z,18.00
2017-07-14T19:12:04.266Z,18.00
2017-07-14T19:14:32.550Z,17.90
2017-07-14T19:17:00.836Z,17.70
2017-07-14T19:19:29.397Z,17.60
2017-07-14T19:21:57.779Z,17.50
2017-07-14T19:24:26.056Z,17.40
2017-07-14T19:26:54.432Z,17.30
2017-07-14T19:29:23.506Z,17.10
2017-07-14T19:31:51.803Z,17.00
2017-07-14T19:34:20.114Z,17.00
2017-07-14T19:36:49.201Z,16.80
2017-07-14T19:39:17.699Z,16.70
2017-07-14T19:41:45.983Z,16.60
2017-07-14T19:44:14.271Z,16.60
2017-07-14T19:46:42.607Z,16.50
2017-07-14T19:49:10.950Z,16.40
2017-07-14T19:51:39.344Z,16.30
2017-07-14T19:54:07.656Z,16.20
2017-07-14T19:56:36.708Z,16.00
2017-07-14T19:59:05.006Z,16.00
2017-07-14T20:01:33.291Z,15.90
2017-07-14T20:04:01.621Z,15.80
2017-07-14T20:06:30.027Z,15.70
2017-07-14T20:08:59.117Z,15.70
2017-07-14T20:11:27.423Z,15.70
2017-07-14T20:13:56.472Z,15.60
2017-07-14T20:16:24.775Z,15.50
2017-07-14T20:18:53.096Z,15.50
2017-07-14T20:21:21.406Z,15.40
2017-07-14T20:23:50.469Z,15.30
2017-07-14T20:26:18.879Z,15.30
2017-07-14T20:28:47.266Z,15.30
2017-07-14T20:31:15.533Z,15.20
2017-07-14T20:33:43.856Z,15.10
2017-07-14T20:36:12.127Z,15.00
2017-07-14T20:38:40.454Z,15.00
2017-07-14T20:41:09.608Z,14.90
2017-07-14T20:43:37.887Z,14.90
2017-07-14T20:46:06.427Z,14.90
2017-07-14T20:48:34.802Z,14.90
2017-07-14T20:51:03.106Z,14.80
2017-07-14T20:53:31.399Z,14.80
2017-07-14T20:55:59.734Z,14.70
2017-07-14T20:58:28.020Z,14.70
2017-07-14T21:00:56.460Z,14.60
2017-07-14T21:03:24.740Z,14.60
2017-07-14T21:05:53.141Z,14.60
2017-07-14T21:08:21.532Z,14.60
2017-07-14T21:10:49.799Z,14.40
2017-07-14T21:13:18.108Z,14.40
2017-07-14T21:15:46.393Z,14.30
2017-07-14T21:18:14.779Z,14.30
2017-07-14T21:20:43.096Z,14.30
2017-07-14T21:23:12.143Z,14.30
2017-07-14T21:25:40.463Z,14.30
2017-07-14T21:28:08.738Z,14.30
2017-07-14T21:30:37.048Z,14.40
2017-07-14T21:33:05.334Z,14.40
2017-07-14T21:35:33.643Z,14.30
2017-07-14T21:38:02.030Z,14.20
2017-07-14T21:40:30.352Z,14.30
2017-07-14T21:42:58.627Z,14.40
2017-07-14T21:45:27.804Z,14.40
2017-07-14T21:47:56.204Z,14.30
2017-07-14T21:50:24.583Z,14.40
2017-07-14T21:52:52.900Z,14.30
2017-07-14T21:55:21.999Z,14.40
2017-07-14T21:57:50.380Z,14.40
2017-07-14T22:00:18.880Z,14.30
2017-07-14T22:02:47.249Z,14.40
2017-07-14T22:05:15.559Z,14.40
2017-07-14T22:07:43.866Z,14.30
2017-07-14T22:10:12.906Z,14.20
2017-07-14T22:12:41.234Z,14.20
2017-07-14T22:15:09.515Z,14.30
2017-07-14T22:17:37.923Z,14.10
2017-07-14T22:20:06.228Z,14.10
2017-07-14T22:22:35.414Z,14.30
2017-07-14T22:25:03.685Z,14.20
2017-07-14T22:27:32.087Z,14.30
2017-07-14T22:30:00.404Z,14.20
2017-07-14T22:32:28.679Z,14.20
2017-07-14T22:34:56.982Z,14.20
2017-07-14T22:37:26.024Z,14.10
2017-07-14T22:39:54.349Z,14.10
2017-07-14T22:42:22.751Z,14.10
2017-07-14T22:44:51.050Z,14.20
2017-07-14T22:47:19.331Z,14.10
2017-07-14T22:49:47.634Z,14.00
2017-07-14T22:52:16.023Z,14.00
2017-07-14T22:54:44.331Z,13.90
2017-07-14T22:57:13.412Z,13.70
2017-07-14T22:59:41.724Z,13.60
2017-07-14T23:02:10.901Z,13.70
2017-07-14T23:04:39.233Z,13.70
2017-07-14T23:07:07.592Z,13.80
2017-07-14T23:09:35.878Z,13.80
2017-07-14T23:12:04.267Z,13.80
2017-07-14T23:14:32.544Z,13.70
2017-07-14T23:17:00.946Z,13.60
2017-07-14T23:19:29.240Z,13.70
2017-07-14T23:21:57.527Z,13.50
2017-07-14T23:24:25.912Z,13.50
2017-07-14T23:26:54.194Z,13.60
2017-07-14T23:29:22.477Z,13.50
2017-07-14T23:31:50.873Z,13.60
2017-07-14T23:34:19.146Z,13.50
2017-07-14T23:36:47.456Z,13.60
2017-07-14T23:39:15.735Z,13.60
2017-07-14T23:41:44.062Z,13.60
2017-07-14T23:44:13.161Z,13.40
2017-07-14T23:46:41.466Z,13.40
2017-07-14T23:49:10.534Z,13.40
2017-07-14T23:51:38.826Z,13.40
2017-07-14T23:54:07.139Z,13.60
2017-07-14T23:56:35.462Z,13.60
2017-07-14T23:59:03.807Z,13.60
